Skip Navigation LinksHome page > Weather > Current weather Skip Navigation Links

Current Weather

Sarh, Chad

For information only: do not use for flight planning or navigation.
Latest weather
Observation time Saturday, November 28, 2015 10:00 AM WAT
Local time Saturday, November 28, 2015 10:26 AM WAT
Flight conditions Visual Meteorological Conditions
Wind direction North-Northwest (340°)
Wind speed 9 mph
Visibility 6.2 mi.
Sky condition
Ceiling unlimited
Sky clear
Temperature 88°F
Dewpoint 46°F
Altimeter 29.94 in.Hg
Derived measurements
Relative humidity 24%
Heat index 88°F
Density altitude 2326 ft.
Ceiling and visibility OK.
METAR FTTA 280900Z 34008KT CAVOK 31/08 Q1014


Location code

InnerDrive.Weather 4.0.5722.1 Release CLR 4.0.30319.34014
Copyright ©2015 Inner Drive Technology. All rights reserved. Portions Copyright ©1986-2015 David Braverman.

Find weather

Site navigation

Skip Navigation Links

Place info

Page info

PayPal - The safer, easier way to pay online!

Return home.

Copyright ©2015 Inner Drive Technology. Purveyors of fine, hand-crafted computer software. Page printed 2015-11-28T09:26:02 UTC.